SRG weather

Achmad Yani Airport
Semarang-Java Island, Jawa Tengah, Indonesia

Public forecast

Using degrees Celsius for public forecast. Weather courtesy of forecast.io.

Current aviation weather report (METAR) for Achmad Yani Airport

Retrieved 2019/10/14 11:00 UTC (2 hours ago):

WAHS 141100Z 29006KT 7000 FEW014 30/21 Q1009 NOSIG

Closest aviation forecast (TAF) to Achmad Yani Airport

Retrieved UTC (0 seconds ago):